Weather observations for the past three days for
Waterville, Waterville Robert LaFleur Airport
| Date | Time (edt) | Wind (mph) | Vis. (mi.) | Weather | Sky Cond. | Temperature (ºF) | Relative Humidity | Wind Chill (°F) | Heat Index (°F) | Pressure | Precipitation (in) | ||||||
|---|---|---|---|---|---|---|---|---|---|---|---|---|---|---|---|---|---|
| Air | Dwpt | 6 hour | altimeter (in) | sea level (mb) | 1 hr | 3 hr | 6 hr | ||||||||||
| Max. | Min. | ||||||||||||||||
| 06 | 07:56 | Vrbl 5 | 10.00 | Mostly Cloudy | BKN120 | 55.9 | 48.9 | 55.9 | 52 | 77% | 29.79 | 1009.4 | |||||
| 06 | 06:56 | Calm | 10.00 | Overcast | OVC033 | 54 | 48.9 | 83% | 29.79 | 1009.4 | |||||||
| 06 | 05:56 | S 5 | 10.00 | Mostly Cloudy | BKN110 | 52 | 48 | 86% | 29.8 | 1009.5 | |||||||
| 06 | 04:56 | S 3 | 10.00 | Light Rain | OVC100 | 53.1 | 48 | 83% | 29.78 | 1008.8 | |||||||
| 06 | 03:56 | SW 3 | 10.00 | Fair | CLR | 53.1 | 48 | 83% | 29.79 | 1009.2 | |||||||
| 06 | 02:56 | S 6 | 10.00 | Partly Cloudy | SCT100 | 54 | 48 | 80% | 29.75 | 1007.8 | |||||||
| 06 | 01:56 | S 5 | 10.00 | Fair | CLR | 55 | 48 | 64 | 55 | 77% | 29.74 | 1007.6 | |||||
| 06 | 00:56 | S 7 | 10.00 | Fair | CLR | 55.9 | 48.9 | 77% | 29.74 | 1007.7 | |||||||
| 05 | 23:56 | S 5 | 10.00 | Mostly Cloudy | BKN075 | 57 | 50 | 78% | 29.73 | 1007.2 | |||||||
| 05 | 22:56 | SW 5 | 10.00 | Overcast | OVC075 | 57.9 | 50 | 75% | 29.73 | 1007.3 | |||||||
| 05 | 21:56 | Vrbl 7 | 9.00 | Light Rain | OVC080 | 60.1 | 50 | 70% | 29.74 | 1007.5 | |||||||
| 05 | 20:56 | S 3 | 10.00 | Overcast | OVC110 | 62.1 | 55.9 | 80% | 29.71 | 1006.5 | |||||||
| 05 | 19:56 | SW 5 | 10.00 | Overcast | FEW046 BKN070 OVC090 | 64 | 55 | 75 | 64 | 73% | 29.71 | 1006.4 | |||||
| 05 | 18:56 | SW 13 G 26 | 10.00 | Mostly Cloudy | SCT055 BKN095 | 66 | 48.9 | 54% | 29.69 | 1005.9 | |||||||
| 05 | 17:56 | S 17 G 25 | 10.00 | Fair | CLR | 68 | 48.9 | 51% | 29.6 | 1002.9 | |||||||
| 05 | 16:56 | S 15 G 32 | 10.00 | Fair | CLR | 71.1 | 50 | 47% | 29.6 | 1002.8 | |||||||
| 05 | 15:56 | S 15 G 29 | 10.00 | Fair | CLR | 73 | 50 | 44% | 29.61 | 1003.0 | |||||||
| 05 | 14:56 | S 14 G 26 | 10.00 | Fair | CLR | 75 | 51.1 | 43% | 78 | 29.62 | 1003.5 | ||||||
| 05 | 13:56 | S 14 G 21 | 10.00 | Fair | CLR | 73 | 50 | 73 | 55 | 44% | 29.64 | 1004.1 | |||||
| 05 | 12:56 | SW 15 G 22 | 10.00 | Fair | CLR | 71.1 | 48.9 | 46% | 29.67 | 1005.2 | |||||||
| 05 | 11:56 | S 10 G 16 | 10.00 | Fair | CLR | 70 | 48.9 | 47% | 29.69 | 1005.8 | |||||||
| 05 | 10:56 | S 9 G 16 | 10.00 | Fair | CLR | 68 | 46.9 | 47% | 29.71 | 1006.5 | |||||||
| 05 | 09:56 | SW 8 G 17 | 10.00 | Fair | CLR | 64.9 | 46 | 51% | 29.72 | 1006.8 | |||||||
| 05 | 08:56 | SW 10 | 10.00 | Mostly Cloudy | BKN110 | 60.1 | 45 | 58% | 29.72 | 1007.0 | |||||||
| 05 | 07:56 | S 8 | 10.00 | Fair | CLR | 55 | 44.1 | 55 | 46 | 67% | 29.74 | 1007.5 | |||||
| 05 | 06:56 | SW 10 | 10.00 | Fair | CLR | 51.1 | 43 | 74% | 29.74 | 1007.5 | |||||||
| 05 | 05:56 | S 6 | 10.00 | Fair | CLR | 48 | 42.1 | 80% | 46 | 29.73 | 1007.3 | ||||||
| 05 | 04:56 | S 7 | 10.00 | Fair | CLR | 48.9 | 42.1 | 77% | 46 | 29.74 | 1007.5 | ||||||
| 05 | 03:56 | SW 6 | 10.00 | Fair | CLR | 46 | 41 | 83% | 44 | 29.74 | 1007.7 | ||||||
| 05 | 02:56 | S 5 | 10.00 | Fair | CLR | 48 | 41 | 77% | 47 | 29.73 | 1007.5 | ||||||
| 05 | 01:56 | SW 6 | 10.00 | Fair | CLR | 46 | 41 | 57.9 | 46 | 83% | 44 | 29.73 | 1007.5 | ||||
| 05 | 00:56 | SW 7 | 10.00 | Fair | CLR | 46.9 | 42.1 | 83% | 44 | 29.73 | 1007.3 | ||||||
| 04 | 23:56 | S 5 | 10.00 | Fair | CLR | 50 | 42.1 | 74% | 49 | 29.72 | 1007.0 | ||||||
| 04 | 22:56 | Calm | 10.00 | Partly Cloudy | SCT120 | 51.1 | 43 | 74% | 29.72 | 1007.0 | |||||||
| 04 | 21:56 | Calm | 10.00 | Overcast | OVC085 | 51.1 | 43 | 74% | 29.72 | 1007.1 | |||||||
| 04 | 20:56 | Calm | 10.00 | Fair | CLR | 55 | 41 | 59% | 29.7 | 1006.5 | |||||||
| 04 | 19:56 | Calm | 10.00 | Fair | CLR | 57.9 | 41 | 64 | 53.1 | 53% | 29.68 | 1005.5 | |||||
| 04 | 18:56 | W 3 | 10.00 | Overcast | OVC085 | 62.1 | 41 | 46% | 29.67 | 1005.1 | |||||||
| 04 | 17:56 | W 5 | 10.00 | Overcast | BKN060 OVC075 | 63 | 42.1 | 47% | 29.67 | 1005.1 | |||||||
| 04 | 16:56 | W 15 G 20 | 10.00 | Partly Cloudy | SCT060 | 62.1 | 42.1 | 48% | 29.66 | 1004.9 | |||||||
| 04 | 15:56 | SW 16 G 21 | 10.00 | Partly Cloudy | SCT055 | 62.1 | 43 | 50% | 29.65 | 1004.7 | |||||||
| 04 | 14:56 | SW 14 | 10.00 | A Few Clouds | FEW070 | 59 | 45 | 60% | 29.67 | 1005.2 | |||||||
| 04 | 13:56 | SW 10 | 10.00 | Overcast | OVC055 | 53.1 | 46.9 | 57 | 46 | 80% | 29.68 | 1005.8 | |||||
| 04 | 12:56 | W 9 | 10.00 | Light Rain | OVC050 | 53.1 | 46 | 77% | 29.68 | 1005.9 | |||||||
| 04 | 11:56 | SW 13 G 23 | 10.00 | Mostly Cloudy | BKN100 | 55.9 | 39.9 | 55% | 29.65 | 1004.7 | |||||||
| 04 | 10:56 | S 10 | 10.00 | Overcast | FEW055 OVC110 | 55 | 37 | 51% | 29.68 | 1005.6 | |||||||
| 04 | 09:56 | Vrbl 5 | 10.00 | Overcast | OVC050 | 51.1 | 33.1 | 50% | 29.71 | 1006.7 | |||||||
| 04 | 08:56 | SW 7 | 10.00 | Overcast | OVC100 | 48 | 30.9 | 52% | 45 | 29.73 | 1007.2 | ||||||
| 04 | 07:56 | S 6 | 10.00 | Mostly Cloudy | BKN080 | 46 | 30.9 | 46 | 33.1 | 56% | 44 | 29.73 | 1007.3 | ||||
| 04 | 06:56 | Calm | 10.00 | A Few Clouds | FEW080 | 39.9 | 30.9 | 70% | 29.73 | 1007.5 | |||||||
| 04 | 05:56 | SW 5 | 10.00 | Fair | CLR | 35.1 | 28 | 76% | 32 | 29.73 | 1007.4 | ||||||
| 04 | 04:56 | SW 5 | 10.00 | Fair | CLR | 33.1 | 28 | 82% | 29 | 29.72 | 1007.1 | ||||||
| 04 | 03:56 | SW 6 | 10.00 | Fair | CLR | 33.1 | 28.9 | 85% | 28 | 29.72 | 1007.1 | ||||||
| 04 | 02:56 | SW 5 | 10.00 | Fair | CLR | 36 | 28.9 | 76% | 33 | 29.71 | 1007.0 | ||||||
| 04 | 01:56 | SW 5 | 10.00 | Fair | CLR | 39 | 28 | 46.9 | 37.9 | 65% | 36 | 29.71 | 1006.9 | ||||
| 04 | 00:56 | SW 7 | 10.00 | Fair | CLR | 39 | 28 | 65% | 35 | 29.71 | 1006.8 | ||||||
| 03 | 23:56 | W 3 | 10.00 | Fair | CLR | 41 | 27 | 57% | 29.7 | 1006.6 | |||||||
| 03 | 22:56 | W 6 | 10.00 | Fair | CLR | 42.1 | 26.1 | 53% | 39 | 29.69 | 1006.2 | ||||||
| 03 | 21:56 | W 6 | 10.00 | Fair | CLR | 44.1 | 26.1 | 49% | 41 | 29.69 | 1006.1 | ||||||
| 03 | 20:56 | NW 7 | 10.00 | Mostly Cloudy | BKN070 | 46 | 26.1 | 46% | 43 | 29.67 | 1005.5 | ||||||
| 03 | 19:56 | NW 9 G 16 | 10.00 | Overcast | OVC070 | 46.9 | 25 | 53.1 | 45 | 42% | 43 | 29.64 | 1004.5 | ||||
| 03 | 18:56 | NW 13 G 21 | 10.00 | Overcast | OVC075 | 50 | 25 | 38% | 46 | 29.62 | 1003.7 | ||||||
| 03 | 17:56 | NW 12 G 22 | 10.00 | Overcast | OVC070 | 51.1 | 27 | 39% | 29.59 | 1002.6 | |||||||
| 03 | 16:56 | N 14 G 21 | 10.00 | Overcast | FEW055 OVC090 | 52 | 30 | 43% | 29.58 | 1002.4 | |||||||
| 03 | 15:56 | NW 8 G 16 | 10.00 | Overcast | OVC055 | 50 | 35.1 | 57% | 47 | 29.6 | 1003.1 | ||||||
| 03 | 14:56 | Vrbl 6 | 10.00 | Overcast | OVC060 | 46.9 | 39.9 | 77% | 45 | 29.62 | 1003.9 | ||||||
| 03 | 13:56 | N 12 | 10.00 | Overcast | FEW018 SCT043 OVC050 | 45 | 39 | 45 | 41 | 80% | 40 | 29.63 | 1004.1 | ||||
| 03 | 12:56 | N 16 G 20 | 10.00 | Light Rain | FEW013 BKN017 OVC036 | 43 | 39.9 | 89% | 36 | 29.63 | 1004.2 | ||||||
| 03 | 11:56 | N 15 G 18 | 10.00 | Light Rain | BKN013 BKN022 OVC027 | 42.1 | 39 | 89% | 35 | 29.65 | 1004.8 | ||||||
| 03 | 10:56 | N 18 | 10.00 | Light Rain | BKN013 OVC034 | 41 | 37.9 | 89% | 33 | 29.66 | 1005.1 | ||||||
| 03 | 09:56 | N 15 | 10.00 | Light Rain | FEW010 BKN027 OVC033 | 41 | 39 | 93% | 34 | 29.68 | 1005.9 | ||||||
| 03 | 08:56 | N 14 | 10.00 | Light Rain | FEW006 SCT009 OVC027 | 41 | 39 | 93% | 34 | 29.7 | 1006.5 | ||||||
| Date | Time (edt) | Wind (mph) | Vis. (mi.) | Weather | Sky Cond. | Air | Dwpt | Max. | Min. | Relative Humidity | Wind Chill (°F) | Heat Index (°F) | altimeter (in) | sea level (mb) | 1 hr | 3 hr | 6 hr |
| 6 hour | |||||||||||||||||
| Temperature (ºF) | Pressure | Precipitation (in) | |||||||||||||||